Time;durP1;ratioP1;P1;durP2;ratioP2;P2;SDS_P1;SDS_P2;PMS_P1;PMS_P2;Temp;Humidity;BMP_temperature;BMP_pressure;BME280_temperature;BME280_humidity;BME280_pressure;Samples;Min_cycle;Max_cycle;Signal;HPM_P1;HPM_P2
2021/06/16 00:00:35;;;;;;;3.73;3.43;;;26.40;52.10;;;;;;4993274;28;20421;-80
2021/06/16 00:03:01;;;;;;;4.27;3.63;;;26.40;52.10;;;;;;4992743;28;20208;-80
2021/06/16 00:05:29;;;;;;;3.57;2.83;;;26.40;52.10;;;;;;4992213;28;20272;-80
2021/06/16 00:07:55;;;;;;;4.77;3.70;;;26.40;52.20;;;;;;4976848;28;20158;-80
2021/06/16 00:10:29;;;;;;;3.77;3.20;;;26.40;52.10;;;;;;4993493;28;20418;-80
2021/06/16 00:12:56;;;;;;;4.50;3.60;;;26.40;52.20;;;;;;4991959;28;20900;-80
2021/06/16 00:15:26;;;;;;;4.00;3.60;;;26.40;52.20;;;;;;4992204;28;20417;-80
2021/06/16 00:17:52;;;;;;;4.17;3.60;;;26.40;52.20;;;;;;4992373;28;20432;-80
2021/06/16 00:20:18;;;;;;;3.57;3.10;;;26.40;52.20;;;;;;4994468;28;20436;-79
2021/06/16 00:22:45;;;;;;;4.47;4.07;;;26.40;52.20;;;;;;4993865;28;20425;-79
2021/06/16 00:25:11;;;;;;;4.70;4.30;;;26.40;52.20;;;;;;4993238;28;20478;-79
2021/06/16 00:27:37;;;;;;;4.50;4.10;;;26.40;52.30;;;;;;4996333;28;20409;-80
2021/06/16 00:30:08;;;;;;;4.30;3.90;;;26.40;52.30;;;;;;4996831;28;20413;-80
2021/06/16 00:32:34;;;;;;;4.00;3.70;;;26.40;52.30;;;;;;4996873;28;20444;-80
2021/06/16 00:35:00;;;;;;;4.50;4.10;;;26.40;52.30;;;;;;4996683;28;20413;-80
2021/06/16 00:47:33;;;;;;;5.43;4.90;;;26.30;52.30;;;;;;4999308;28;20512;-79
2021/06/16 00:49:59;;;;;;;5.87;4.53;;;26.30;52.50;;;;;;4999114;28;20429;-79
2021/06/16 00:52:25;;;;;;;5.90;5.20;;;26.30;52.50;;;;;;4999931;28;20393;-79
2021/06/16 00:54:54;;;;;;;5.90;4.37;;;26.30;52.50;;;;;;4998686;28;20448;-79
2021/06/16 00:57:22;;;;;;;6.80;4.60;;;26.30;52.40;;;;;;5000195;28;20424;-79
2021/06/16 01:00:06;;;;;;;4.90;4.50;;;26.30;52.40;;;;;;4998782;28;20417;-79
2021/06/16 01:02:52;;;;;;;5.23;4.40;;;26.30;52.40;;;;;;4999689;28;20429;-79
2021/06/16 01:05:19;;;;;;;5.00;4.60;;;26.30;52.50;;;;;;4998876;28;20452;-80
2021/06/16 01:07:53;;;;;;;5.60;5.10;;;26.30;52.50;;;;;;4999803;28;20424;-79
2021/06/16 01:10:22;;;;;;;5.40;5.00;;;26.30;52.50;;;;;;4999983;28;20416;-80
2021/06/16 01:12:58;;;;;;;5.37;4.87;;;26.30;52.40;;;;;;5000226;28;20404;-80
2021/06/16 01:15:26;;;;;;;5.43;4.93;;;26.30;52.40;;;;;;4999271;28;20439;-80
2021/06/16 01:18:01;;;;;;;5.70;4.90;;;26.30;52.40;;;;;;4999634;28;20432;-79
2021/06/16 01:20:35;;;;;;;6.50;5.90;;;26.30;52.40;;;;;;4999767;28;20409;-79
2021/06/16 01:23:07;;;;;;;5.60;5.10;;;26.30;52.50;;;;;;4998900;28;20404;-79
2021/06/16 01:25:58;;;;;;;7.00;5.23;;;26.30;52.50;;;;;;4999983;28;20524;-79
2021/06/16 01:28:29;;;;;;;5.17;4.70;;;26.30;52.50;;;;;;4999166;28;20397;-79
2021/06/16 01:30:57;;;;;;;5.70;5.10;;;26.30;52.50;;;;;;4999616;28;20370;-79
2021/06/16 01:33:23;;;;;;;5.97;5.47;;;26.30;52.50;;;;;;4998751;28;20421;-79
2021/06/16 01:35:53;;;;;;;6.40;5.80;;;26.30;52.50;;;;;;4999467;28;20417;-79
2021/06/16 01:38:21;;;;;;;5.77;5.27;;;26.30;52.50;;;;;;4997567;28;20417;-79
2021/06/16 01:40:49;;;;;;;5.30;4.90;;;26.30;52.60;;;;;;4999448;28;20424;-79
2021/06/16 01:43:17;;;;;;;6.27;5.67;;;26.40;52.60;;;;;;4996914;28;20787;-79
2021/06/16 01:45:45;;;;;;;5.97;5.47;;;26.30;52.50;;;;;;4995840;28;20507;-79
2021/06/16 01:48:15;;;;;;;5.60;5.13;;;26.30;52.50;;;;;;4996806;28;20432;-79
2021/06/16 01:50:42;;;;;;;5.97;5.47;;;26.30;52.50;;;;;;4996188;28;20405;-79
2021/06/16 01:53:09;;;;;;;5.20;4.70;;;26.30;52.60;;;;;;4994273;28;20448;-79
2021/06/16 01:55:35;;;;;;;6.20;5.60;;;26.30;52.60;;;;;;4993333;28;20429;-79
2021/06/16 01:58:01;;;;;;;6.37;5.73;;;26.30;52.60;;;;;;4994480;28;20424;-79
2021/06/16 02:00:28;;;;;;;6.30;5.80;;;26.20;52.50;;;;;;4994324;28;20425;-79
2021/06/16 02:02:55;;;;;;;5.60;5.10;;;26.30;52.60;;;;;;4993803;28;20440;-78
2021/06/16 02:05:22;;;;;;;6.50;5.80;;;26.30;52.60;;;;;;4994403;28;20487;-79
2021/06/16 02:07:59;;;;;;;5.50;5.00;;;26.30;52.60;;;;;;4998356;28;20413;-79
2021/06/16 02:10:34;;;;;;;6.37;5.77;;;26.30;52.60;;;;;;4998614;28;20398;-79
2021/06/16 02:13:03;;;;;;;6.37;5.13;;;26.20;52.50;;;;;;4997684;28;20416;-79
2021/06/16 02:15:35;;;;;;;5.93;5.43;;;26.20;52.50;;;;;;4997991;28;20408;-79
2021/06/16 02:18:04;;;;;;;6.47;5.50;;;26.30;52.50;;;;;;4998571;28;20441;-79
2021/06/16 02:20:33;;;;;;;7.27;6.13;;;26.30;52.60;;;;;;4998939;28;20421;-79
2021/06/16 02:23:00;;;;;;;6.07;5.57;;;26.20;52.50;;;;;;4999176;28;20393;-80
2021/06/16 02:25:29;;;;;;;5.97;5.27;;;26.20;52.50;;;;;;4998196;28;20441;-79
2021/06/16 02:27:58;;;;;;;5.97;5.40;;;26.30;52.60;;;;;;4998214;28;20417;-79
2021/06/16 02:30:24;;;;;;;5.07;4.67;;;26.30;52.60;;;;;;4998034;28;20420;-79
2021/06/16 02:32:52;;;;;;;6.33;5.83;;;26.20;52.50;;;;;;4998275;28;20765;-79
2021/06/16 02:35:18;;;;;;;8.13;6.10;;;26.20;52.50;;;;;;4996360;28;20412;-78
2021/06/16 02:37:52;;;;;;;6.00;5.47;;;26.20;52.50;;;;;;4997134;28;20405;-79
2021/06/16 02:40:20;;;;;;;5.60;5.10;;;26.20;52.50;;;;;;4995334;28;20416;-79
2021/06/16 02:42:48;;;;;;;6.27;5.63;;;26.30;52.60;;;;;;4994633;28;20421;-78
2021/06/16 02:45:18;;;;;;;5.47;5.07;;;26.20;52.60;;;;;;4996242;28;20401;-79
2021/06/16 02:47:51;;;;;;;5.90;5.30;;;26.20;52.60;;;;;;4996171;28;20810;-79
2021/06/16 02:50:25;;;;;;;7.63;6.43;;;26.20;52.50;;;;;;4993745;28;20425;-79
2021/06/16 02:52:52;;;;;;;6.30;5.80;;;26.20;52.50;;;;;;4993624;28;20413;-79
2021/06/16 02:55:19;;;;;;;5.60;5.10;;;26.20;52.50;;;;;;4977351;28;20444;-79
2021/06/16 02:57:45;;;;;;;5.97;5.47;;;26.20;52.50;;;;;;4993064;28;20409;-79
2021/06/16 03:00:14;;;;;;;5.33;4.90;;;26.20;52.50;;;;;;4996038;28;20425;-79
2021/06/16 03:02:46;;;;;;;5.97;5.47;;;26.20;52.50;;;;;;4996939;28;20490;-79
2021/06/16 03:05:31;;;;;;;5.80;5.30;;;26.20;52.50;;;;;;4996395;28;20417;-79
2021/06/16 03:08:01;;;;;;;5.97;5.47;;;26.20;52.50;;;;;;4993772;28;20409;-79
2021/06/16 03:10:30;;;;;;;6.10;5.50;;;26.20;52.50;;;;;;4976702;28;20763;-79
2021/06/16 03:12:57;;;;;;;5.73;5.33;;;26.20;52.50;;;;;;4997208;28;20433;-79
2021/06/16 03:15:30;;;;;;;5.93;4.90;;;26.20;52.50;;;;;;4997565;28;20409;-79
2021/06/16 03:17:57;;;;;;;6.10;5.50;;;26.20;52.50;;;;;;4995849;28;20428;-79
2021/06/16 03:20:27;;;;;;;5.60;5.20;;;26.20;52.50;;;;;;4993994;28;20413;-78
2021/06/16 03:22:54;;;;;;;6.10;5.60;;;26.20;52.50;;;;;;4994416;28;20417;-79
2021/06/16 03:25:20;;;;;;;6.70;6.10;;;26.20;52.50;;;;;;4993956;28;20537;-78
2021/06/16 03:27:47;;;;;;;6.43;5.57;;;26.20;52.50;;;;;;4992794;28;20397;-78
2021/06/16 03:30:14;;;;;;;6.63;6.03;;;26.20;52.50;;;;;;4977809;28;20437;-78
2021/06/16 03:32:41;;;;;;;6.63;5.90;;;26.20;52.50;;;;;;4993255;28;20417;-78
2021/06/16 03:35:08;;;;;;;6.20;5.67;;;26.20;52.50;;;;;;4992549;28;20409;-79
2021/06/16 03:37:35;;;;;;;6.13;5.53;;;26.20;52.50;;;;;;4992497;28;20413;-79
2021/06/16 03:40:02;;;;;;;6.70;6.00;;;26.20;52.50;;;;;;4992582;28;20421;-79
2021/06/16 03:42:28;;;;;;;6.37;5.60;;;26.20;52.50;;;;;;4992767;28;20420;-78
2021/06/16 03:44:56;;;;;;;6.47;5.87;;;26.20;52.50;;;;;;4994882;28;20477;-78
2021/06/16 03:47:26;;;;;;;6.00;5.50;;;26.20;52.50;;;;;;4995258;28;20476;-79
2021/06/16 03:49:53;;;;;;;6.93;6.37;;;26.20;52.60;;;;;;4995485;28;20417;-79
2021/06/16 03:52:21;;;;;;;6.80;5.83;;;26.20;52.60;;;;;;4995030;28;20417;-79
2021/06/16 03:54:47;;;;;;;6.40;5.90;;;26.20;52.60;;;;;;4995200;28;20409;-79
2021/06/16 03:57:14;;;;;;;7.10;6.40;;;26.20;52.60;;;;;;4995301;28;20417;-78
2021/06/16 03:59:41;;;;;;;6.70;6.10;;;26.20;52.60;;;;;;4994918;28;20421;-78
2021/06/16 04:02:07;;;;;;;7.03;5.83;;;26.20;52.60;;;;;;4997334;28;20432;-78
2021/06/16 04:04:33;;;;;;;5.33;4.93;;;26.20;52.60;;;;;;4996691;28;20421;-78
2021/06/16 04:07:01;;;;;;;6.70;6.10;;;26.20;52.60;;;;;;4994653;28;20456;-79
2021/06/16 04:09:27;;;;;;;5.53;5.00;;;26.20;52.60;;;;;;4995574;28;20405;-79
2021/06/16 04:11:53;;;;;;;6.67;6.17;;;26.20;52.60;;;;;;4994867;28;20417;-79
2021/06/16 04:14:22;;;;;;;5.90;5.40;;;26.20;52.60;;;;;;4995312;28;20413;-79
2021/06/16 04:16:49;;;;;;;6.20;5.70;;;26.20;52.60;;;;;;4995320;28;20189;-78
2021/06/16 04:19:15;;;;;;;6.07;5.57;;;26.20;52.60;;;;;;4995310;28;20495;-79
2021/06/16 04:21:41;;;;;;;7.23;5.80;;;26.20;52.70;;;;;;4995651;28;20447;-79
2021/06/16 04:24:10;;;;;;;8.63;5.90;;;26.20;52.60;;;;;;4995381;28;20420;-78
2021/06/16 04:26:36;;;;;;;6.33;5.80;;;26.20;52.60;;;;;;4996903;28;20516;-78
2021/06/16 04:29:03;;;;;;;7.20;6.60;;;26.20;52.60;;;;;;4996563;28;20420;-79
2021/06/16 04:31:28;;;;;;;6.67;6.17;;;26.20;52.60;;;;;;4995162;28;20409;-79
2021/06/16 04:33:55;;;;;;;7.27;6.57;;;26.30;52.70;;;;;;4993067;28;20436;-79
2021/06/16 04:36:21;;;;;;;7.10;6.40;;;26.20;52.70;;;;;;4994848;28;20190;-78
2021/06/16 04:38:47;;;;;;;6.90;6.30;;;26.30;52.80;;;;;;4995396;28;20440;-78
2021/06/16 04:41:13;;;;;;;6.93;6.20;;;26.20;52.70;;;;;;4995428;28;20435;-79
2021/06/16 04:43:39;;;;;;;6.43;5.83;;;26.20;52.70;;;;;;4995855;28;20413;-79
2021/06/16 04:46:08;;;;;;;6.70;6.10;;;26.30;52.70;;;;;;4996315;28;20199;-78
2021/06/16 04:48:34;;;;;;;6.47;5.87;;;26.30;52.70;;;;;;4996241;28;20178;-79
2021/06/16 04:51:00;;;;;;;7.20;6.60;;;26.30;52.70;;;;;;4996585;28;20431;-79
2021/06/16 04:53:26;;;;;;;7.23;6.20;;;26.30;52.70;;;;;;4997086;28;20440;-78
2021/06/16 04:55:52;;;;;;;6.30;5.80;;;26.30;52.60;;;;;;4998258;28;20184;-79
2021/06/16 04:58:18;;;;;;;7.27;6.53;;;26.30;52.60;;;;;;4998717;28;20473;-79
2021/06/16 05:00:44;;;;;;;7.07;6.37;;;26.30;52.70;;;;;;4998826;28;20429;-79
2021/06/16 05:03:10;;;;;;;7.03;6.37;;;26.30;52.60;;;;;;4997613;28;20460;-79
2021/06/16 05:05:37;;;;;;;7.00;6.30;;;26.40;52.70;;;;;;4996894;28;20475;-80
2021/06/16 05:08:03;;;;;;;6.57;5.97;;;26.30;52.60;;;;;;4996100;28;20521;-79
2021/06/16 05:10:29;;;;;;;7.73;6.97;;;26.40;52.70;;;;;;4995753;28;20426;-78
2021/06/16 05:12:55;;;;;;;6.63;5.90;;;26.40;52.70;;;;;;4995386;28;20401;-78
2021/06/16 05:15:21;;;;;;;6.90;6.30;;;26.30;52.60;;;;;;4998205;28;20443;-78
2021/06/16 05:17:47;;;;;;;7.50;6.43;;;26.40;52.70;;;;;;4981856;28;20445;-78
2021/06/16 05:20:16;;;;;;;8.10;7.17;;;26.30;53.20;;;;;;4992841;28;20221;-79
2021/06/16 05:22:46;;;;;;;6.90;6.23;;;26.40;52.70;;;;;;4992081;28;20723;-79
2021/06/16 05:25:12;;;;;;;6.67;6.03;;;26.30;52.60;;;;;;4992387;28;20457;-79
2021/06/16 05:27:39;;;;;;;7.43;6.70;;;26.40;52.70;;;;;;4977905;29;20449;-80
2021/06/16 05:30:06;;;;;;;7.20;6.60;;;26.40;52.70;;;;;;4975924;28;20453;-80
2021/06/16 05:32:32;;;;;;;6.53;5.93;;;26.30;52.60;;;;;;4975940;29;20483;-80
2021/06/16 05:34:58;;;;;;;6.23;5.70;;;26.40;52.60;;;;;;4977934;29;20402;-79
2021/06/16 05:37:24;;;;;;;7.50;6.80;;;26.40;52.60;;;;;;4995801;28;20461;-79
2021/06/16 05:39:53;;;;;;;8.70;6.97;;;26.40;52.60;;;;;;4980722;29;20158;-80
2021/06/16 05:42:19;;;;;;;7.00;6.30;;;26.40;52.70;;;;;;4978949;28;20416;-80
2021/06/16 05:44:48;;;;;;;6.50;6.00;;;26.40;52.70;;;;;;4976444;29;20450;-79
2021/06/16 05:47:14;;;;;;;7.43;6.73;;;26.40;52.70;;;;;;4992701;28;20210;-79
2021/06/16 05:49:40;;;;;;;6.80;6.20;;;26.40;52.70;;;;;;4976589;29;20437;-80
2021/06/16 05:52:07;;;;;;;6.50;5.90;;;26.40;52.70;;;;;;4976766;29;20174;-80
2021/06/16 05:54:32;;;;;;;6.60;6.10;;;26.40;52.70;;;;;;4976277;29;20457;-79
2021/06/16 05:56:59;;;;;;;7.20;6.60;;;26.40;52.70;;;;;;4992370;28;20426;-79
2021/06/16 05:59:33;;;;;;;6.57;5.97;;;26.40;53.20;;;;;;4990944;28;20182;-83
2021/06/16 06:02:00;;;;;;;7.70;7.00;;;26.40;52.60;;;;;;4988142;28;20430;-80
2021/06/16 06:04:26;;;;;;;6.77;6.07;;;26.40;52.90;;;;;;4990128;28;20516;-80
2021/06/16 06:06:53;;;;;;;7.07;6.47;;;26.40;52.90;;;;;;4973273;29;20489;-79
2021/06/16 06:09:18;;;;;;;7.20;6.40;;;26.40;52.90;;;;;;4975062;28;20411;-79
2021/06/16 06:11:44;;;;;;;7.13;6.43;;;26.50;52.90;;;;;;4956351;29;20415;-79
2021/06/16 06:14:10;;;;;;;7.70;6.90;;;26.50;52.90;;;;;;4954839;29;20701;-80
2021/06/16 06:16:36;;;;;;;7.87;6.30;;;26.50;52.80;;;;;;4955118;29;20175;-79
2021/06/16 06:19:20;;;;;;;7.03;6.43;;;26.60;52.90;;;;;;4953950;29;20430;-80
2021/06/16 06:21:47;;;;;;;7.00;6.30;;;26.60;52.90;;;;;;4954196;29;20230;-79
2021/06/16 06:24:18;;;;;;;6.87;6.27;;;26.60;52.90;;;;;;4953232;29;20498;-79
2021/06/16 06:26:44;;;;;;;7.80;7.10;;;26.60;52.90;;;;;;4969780;29;20493;-79
2021/06/16 06:29:15;;;;;;;7.80;6.67;;;26.60;52.90;;;;;;4953712;29;20427;-79
2021/06/16 06:31:45;;;;;;;7.20;6.60;;;26.60;52.90;;;;;;4937651;29;20231;-79
2021/06/16 06:37:39;;;;;;;7.73;6.93;;;26.60;53.00;;;;;;4941846;29;20391;-79
2021/06/16 06:42:54;;;;;;;6.90;6.30;;;26.70;53.20;;;;;;4947744;23;20518;-79
2021/06/16 06:45:22;;;;;;;6.90;6.30;;;26.70;53.20;;;;;;4951658;29;20430;-79
2021/06/16 06:48:35;;;;;;;7.60;6.83;;;26.70;53.20;;;;;;4958875;28;20547;-80
2021/06/16 07:04:14;;;;;;;6.73;6.13;;;26.70;53.20;;;;;;5373055;23;20531;-79
2021/06/16 07:06:40;;;;;;;7.10;6.50;;;26.70;53.10;;;;;;4971449;28;20485;-81
2021/06/16 07:09:07;;;;;;;9.60;6.90;;;26.70;53.20;;;;;;4971526;28;20493;-80
2021/06/16 07:11:37;;;;;;;7.40;6.80;;;26.80;53.30;;;;;;4971506;28;20424;-81
2021/06/16 07:14:04;;;;;;;7.17;6.57;;;26.80;53.30;;;;;;4986292;28;20417;-80
2021/06/16 07:16:34;;;;;;;7.23;6.53;;;26.80;53.20;;;;;;4972616;28;20503;-80
2021/06/16 07:19:02;;;;;;;6.83;6.23;;;26.80;53.20;;;;;;4960389;28;20425;-80
2021/06/16 07:21:37;;;;;;;6.87;6.27;;;26.80;53.10;;;;;;4960633;28;20407;-80
2021/06/16 07:24:17;;;;;;;8.03;7.33;;;26.80;53.20;;;;;;4966080;28;20410;-80
2021/06/16 07:43:54;;;;;;;6.03;5.53;;;26.90;53.30;;;;;;4980060;28;20409;-80
2021/06/16 07:46:24;;;;;;;6.80;6.20;;;26.90;53.40;;;;;;4979811;28;20453;-79
2021/06/16 07:48:50;;;;;;;7.23;5.87;;;26.90;53.30;;;;;;4978483;29;20418;-79
2021/06/16 07:51:48;;;;;;;7.47;6.80;;;26.90;53.30;;;;;;4978777;28;20434;-79
2021/06/16 07:54:21;;;;;;;6.57;5.93;;;26.90;53.20;;;;;;4975753;28;20402;-80
2021/06/16 07:56:52;;;;;;;6.13;5.63;;;26.90;53.30;;;;;;4976929;28;20397;-80
2021/06/16 07:59:21;;;;;;;7.00;6.40;;;26.90;53.30;;;;;;4975618;29;20418;-80
2021/06/16 08:01:53;;;;;;;6.40;5.90;;;26.90;53.30;;;;;;4974451;29;20441;-80
2021/06/16 08:04:23;;;;;;;6.73;5.73;;;26.90;53.20;;;;;;4975582;29;20458;-80
2021/06/16 08:06:52;;;;;;;5.70;5.20;;;26.90;53.20;;;;;;4975982;28;20468;-80
2021/06/16 08:09:24;;;;;;;6.73;6.13;;;26.90;53.20;;;;;;4975455;29;20430;-80
2021/06/16 08:12:08;;;;;;;6.60;6.00;;;26.90;53.20;;;;;;4976194;29;20394;-80
2021/06/16 08:14:34;;;;;;;5.87;5.37;;;27.00;53.20;;;;;;4975879;28;20406;-80
2021/06/16 08:17:01;;;;;;;6.43;5.83;;;26.90;53.20;;;;;;4947211;29;20447;-80
2021/06/16 08:19:27;;;;;;;6.33;5.83;;;27.00;53.30;;;;;;4970341;29;20438;-79
2021/06/16 08:21:53;;;;;;;6.43;5.80;;;27.00;53.30;;;;;;4955762;29;20910;-79
2021/06/16 08:24:44;;;;;;;6.80;6.20;;;27.00;53.30;;;;;;4954771;29;20462;-78
2021/06/16 08:27:15;;;;;;;6.23;5.67;;;27.00;53.30;;;;;;4955504;29;20831;-78
2021/06/16 08:33:06;;;;;;;6.53;5.87;;;27.00;53.30;;;;;;4955457;29;20401;-79
2021/06/16 08:35:52;;;;;;;7.23;6.53;;;27.00;53.40;;;;;;4971995;29;20430;-80
2021/06/16 08:41:47;;;;;;;7.07;6.47;;;27.00;53.20;;;;;;4957545;29;20425;-79
2021/06/16 08:44:14;;;;;;;6.93;6.23;;;27.00;53.30;;;;;;4957285;29;20454;-79
2021/06/16 08:46:46;;;;;;;8.20;7.13;;;27.00;53.30;;;;;;4959081;29;20465;-80
2021/06/16 08:49:21;;;;;;;6.67;6.00;;;27.00;53.30;;;;;;4944438;29;20448;-80
2021/06/16 09:03:07;;;;;;;6.50;5.70;;;27.10;53.30;;;;;;5903100;23;21082;-79
2021/06/16 09:05:40;;;;;;;6.87;6.20;;;27.00;53.20;;;;;;4982029;28;20501;-80
2021/06/16 09:08:22;;;;;;;7.50;6.10;;;27.10;53.30;;;;;;4981029;29;20489;-79
2021/06/16 09:10:53;;;;;;;6.30;5.70;;;27.10;53.20;;;;;;4980862;29;20477;-79
2021/06/16 09:13:38;;;;;;;6.33;5.83;;;27.10;53.20;;;;;;4981187;28;20486;-79
2021/06/16 09:16:30;;;;;;;6.73;6.13;;;27.10;53.20;;;;;;4979827;29;20406;-79
2021/06/16 09:18:58;;;;;;;6.87;6.17;;;27.10;53.30;;;;;;4962301;29;20448;-79
2021/06/16 09:21:36;;;;;;;6.37;5.77;;;27.10;53.30;;;;;;4978659;29;20450;-79
2021/06/16 09:24:03;;;;;;;6.93;6.33;;;27.10;53.20;;;;;;4976432;29;20417;-79
2021/06/16 09:26:43;;;;;;;6.60;6.00;;;27.10;53.30;;;;;;4977587;29;20437;-78
2021/06/16 09:29:15;;;;;;;6.80;6.20;;;27.10;53.30;;;;;;4962630;29;20465;-79
2021/06/16 09:31:56;;;;;;;6.83;6.23;;;27.10;53.30;;;;;;4977389;29;20437;-79
2021/06/16 09:34:31;;;;;;;9.43;6.40;;;27.10;53.20;;;;;;4978030;29;20425;-79
2021/06/16 09:37:04;;;;;;;5.80;5.40;;;27.10;53.30;;;;;;4975997;29;20424;-78
2021/06/16 09:40:01;;;;;;;6.10;5.60;;;27.10;53.30;;;;;;4975522;29;20425;-79
2021/06/16 09:42:35;;;;;;;6.30;5.70;;;27.10;53.20;;;;;;4976757;29;20979;-79
2021/06/16 09:45:11;;;;;;;6.37;5.83;;;27.10;53.20;;;;;;4961051;29;20449;-79
2021/06/16 09:51:31;;;;;;;6.73;6.13;;;27.10;53.20;;;;;;4955871;29;20433;-78
2021/06/16 09:54:02;;;;;;;6.50;5.90;;;27.10;53.30;;;;;;4924189;29;20503;-78
2021/06/16 09:56:32;;;;;;;5.97;5.47;;;27.10;53.20;;;;;;4939546;29;20411;-79
2021/06/16 09:58:58;;;;;;;6.53;6.03;;;27.10;53.30;;;;;;4939279;29;20422;-79
2021/06/16 10:01:51;;;;;;;6.97;6.27;;;27.10;53.30;;;;;;4939458;29;20434;-79
2021/06/16 10:08:03;;;;;;;6.67;6.07;;;27.20;53.40;;;;;;4955198;29;20918;-80
2021/06/16 10:10:48;;;;;;;7.87;6.03;;;27.10;53.30;;;;;;4895586;29;20425;-79
2021/06/16 10:13:32;;;;;;;7.13;6.43;;;27.10;53.40;;;;;;4925775;29;20423;-79
2021/06/16 10:16:16;;;;;;;5.90;5.33;;;27.20;53.50;;;;;;4939775;29;20451;-80
2021/06/16 10:25:19;;;;;;;7.70;4.83;;;27.20;53.40;;;;;;4956306;29;20479;-79
2021/06/16 10:28:16;;;;;;;6.00;5.50;;;27.10;53.50;;;;;;4943217;29;20411;-79
2021/06/16 10:30:43;;;;;;;6.70;6.10;;;27.10;53.50;;;;;;4931115;29;20455;-79
2021/06/16 10:33:38;;;;;;;5.10;4.70;;;27.10;53.50;;;;;;4922471;29;20430;-79
2021/06/16 10:36:07;;;;;;;5.63;5.13;;;27.20;53.50;;;;;;4954790;29;20985;-79
2021/06/16 10:38:37;;;;;;;5.57;5.07;;;27.10;53.50;;;;;;4956158;29;20420;-79
2021/06/16 10:41:03;;;;;;;5.83;5.33;;;27.20;53.50;;;;;;4955744;29;20423;-79
2021/06/16 10:43:32;;;;;;;6.17;5.67;;;27.20;53.50;;;;;;4955651;29;20429;-80
2021/06/16 10:46:03;;;;;;;6.77;5.90;;;27.20;53.40;;;;;;4956407;29;20518;-80
2021/06/16 10:48:57;;;;;;;5.63;5.17;;;27.20;53.40;;;;;;4956646;29;20435;-79
2021/06/16 10:51:29;;;;;;;5.57;5.07;;;27.30;53.40;;;;;;4958900;29;20398;-78
2021/06/16 10:57:22;;;;;;;5.50;5.00;;;27.20;53.30;;;;;;4957716;29;20435;-79
2021/06/16 10:59:50;;;;;;;6.17;5.50;;;27.20;53.30;;;;;;4956213;29;20395;-79
2021/06/16 11:02:38;;;;;;;6.33;5.73;;;27.20;53.40;;;;;;4956966;29;20419;-79
2021/06/16 11:05:31;;;;;;;7.20;5.73;;;27.30;53.50;;;;;;4955805;29;20458;-80
2021/06/16 11:07:59;;;;;;;5.87;5.33;;;27.20;53.40;;;;;;4957401;29;20890;-79
2021/06/16 11:10:53;;;;;;;5.10;4.70;;;27.20;53.40;;;;;;4955729;29;20415;-79
2021/06/16 11:13:38;;;;;;;6.13;5.63;;;27.30;53.40;;;;;;4972613;29;20412;-80
2021/06/16 11:16:45;;;;;;;5.37;4.97;;;27.30;53.40;;;;;;4956484;29;20450;-79
2021/06/16 11:19:56;;;;;;;6.53;5.20;;;27.30;53.40;;;;;;4955730;29;20418;-79
2021/06/16 11:22:39;;;;;;;6.53;5.27;;;27.30;53.90;;;;;;4897998;29;20421;-80
2021/06/16 11:25:18;;;;;;;5.80;5.30;;;27.30;53.40;;;;;;4897292;29;20418;-78
2021/06/16 11:52:26;;;;;;;5.00;4.60;;;27.30;53.10;;;;;;5827037;23;20456;-79
2021/06/16 11:54:53;;;;;;;5.03;4.53;;;27.30;53.10;;;;;;4860460;29;20442;-80
2021/06/16 11:57:35;;;;;;;4.67;4.23;;;27.20;53.00;;;;;;4863068;29;20431;-80
2021/06/16 12:00:23;;;;;;;4.57;4.20;;;27.30;53.00;;;;;;4869032;29;20450;-79
2021/06/16 12:15:36;;;;;;;5.27;4.77;;;27.30;53.00;;;;;;5406004;23;20490;-79
2021/06/16 12:18:14;;;;;;;4.20;3.90;;;27.30;52.90;;;;;;4958183;29;20407;-80
2021/06/16 12:20:44;;;;;;;4.43;4.03;;;27.30;53.00;;;;;;4973807;28;20410;-78
2021/06/16 12:23:43;;;;;;;4.87;4.47;;;27.30;52.90;;;;;;4985895;28;20440;-79
2021/06/16 12:30:15;;;;;;;4.27;3.97;;;27.30;52.80;;;;;;4924095;29;20432;-79
2021/06/16 12:33:19;;;;;;;4.90;4.40;;;27.30;52.80;;;;;;4924125;29;20420;-79
2021/06/16 12:56:27;;;;;;;4.50;4.10;;;27.30;52.20;;;;;;5028213;23;20521;-80
2021/06/16 13:02:34;;;;;;;6.90;3.93;;;27.30;52.60;;;;;;4966737;28;20182;-80
2021/06/16 13:05:13;;;;;;;4.23;3.83;;;27.30;52.60;;;;;;4970511;28;20409;-80
2021/06/16 13:07:54;;;;;;;3.70;3.40;;;27.30;52.60;;;;;;4962923;28;20435;-79
2021/06/16 13:10:26;;;;;;;3.47;3.20;;;27.30;52.70;;;;;;4968217;28;20415;-79
2021/06/16 13:12:59;;;;;;;4.03;3.70;;;27.30;52.70;;;;;;4968240;28;20405;-79
2021/06/16 13:15:49;;;;;;;4.20;3.80;;;27.30;52.70;;;;;;4986728;28;20490;-79
2021/06/16 13:18:19;;;;;;;4.27;3.97;;;27.30;52.60;;;;;;4968123;28;20399;-79
2021/06/16 13:20:53;;;;;;;3.80;3.30;;;27.30;52.70;;;;;;4985240;28;20421;-80
2021/06/16 13:23:35;;;;;;;4.67;4.27;;;27.30;52.60;;;;;;4976689;28;20426;-79
2021/06/16 13:26:15;;;;;;;4.13;3.60;;;27.30;52.60;;;;;;4974780;28;20561;-79
2021/06/16 13:28:43;;;;;;;4.03;3.73;;;27.30;52.60;;;;;;4973916;28;20414;-80
2021/06/16 13:31:30;;;;;;;4.57;4.17;;;27.30;52.60;;;;;;4959725;28;20430;-79
2021/06/16 13:34:10;;;;;;;4.03;3.63;;;27.30;52.60;;;;;;4969461;28;20482;-80
2021/06/16 13:36:45;;;;;;;4.27;3.87;;;27.30;52.60;;;;;;4986107;28;20417;-80
2021/06/16 13:39:14;;;;;;;4.10;3.80;;;27.30;52.60;;;;;;4977093;29;20431;-80
2021/06/16 13:42:04;;;;;;;4.30;3.90;;;27.30;52.60;;;;;;4973899;28;20415;-80
2021/06/16 13:44:39;;;;;;;4.50;4.10;;;27.30;52.60;;;;;;4956720;29;20419;-80
2021/06/16 13:47:05;;;;;;;4.83;4.30;;;27.30;52.60;;;;;;4940667;29;20497;-80
2021/06/16 13:49:42;;;;;;;4.00;3.70;;;27.30;52.60;;;;;;4957301;29;20474;-80
2021/06/16 13:52:22;;;;;;;4.37;3.97;;;27.30;52.60;;;;;;4958559;29;20435;-80
2021/06/16 13:55:09;;;;;;;4.43;4.03;;;27.30;52.50;;;;;;4958332;29;20474;-80
2021/06/16 13:57:39;;;;;;;4.90;3.90;;;27.30;52.60;;;;;;4957415;29;20446;-79
2021/06/16 14:00:11;;;;;;;4.40;3.97;;;27.30;52.50;;;;;;4957332;29;20481;-80
2021/06/16 14:02:42;;;;;;;4.33;3.80;;;27.30;52.50;;;;;;4958439;29;20447;-80
2021/06/16 14:05:10;;;;;;;4.27;3.93;;;27.20;52.40;;;;;;4958493;29;20447;-80
2021/06/16 14:07:42;;;;;;;4.30;3.93;;;27.30;52.50;;;;;;4959501;29;20458;-80
2021/06/16 14:10:10;;;;;;;4.03;3.63;;;27.30;52.40;;;;;;4958328;29;20484;-80
2021/06/16 14:12:40;;;;;;;4.40;4.00;;;27.20;52.40;;;;;;4957480;29;20484;-80
2021/06/16 14:15:29;;;;;;;3.87;3.57;;;27.30;52.40;;;;;;4958972;29;20425;-79
2021/06/16 14:17:58;;;;;;;3.97;3.67;;;27.30;52.40;;;;;;4958365;29;20426;-80
2021/06/16 14:20:28;;;;;;;4.07;3.67;;;27.30;52.40;;;;;;4957947;29;20427;-80
2021/06/16 14:23:12;;;;;;;3.83;3.40;;;27.30;52.50;;;;;;4957763;29;20411;-79
2021/06/16 14:25:38;;;;;;;4.50;4.20;;;27.30;52.40;;;;;;4940805;29;20466;-79
2021/06/16 14:28:11;;;;;;;3.83;3.53;;;27.30;52.40;;;;;;4956882;29;20399;-79
2021/06/16 14:30:41;;;;;;;3.80;3.50;;;27.30;52.40;;;;;;4959109;29;20418;-79
2021/06/16 14:59:53;;;;;;;3.87;3.50;;;27.30;52.40;;;;;;5282607;23;20550;-80
2021/06/16 15:02:19;;;;;;;3.83;3.53;;;27.20;52.30;;;;;;4959830;29;20399;-79
2021/06/16 15:04:48;;;;;;;4.23;3.83;;;27.30;52.40;;;;;;4960696;29;20429;-79
2021/06/16 15:07:23;;;;;;;4.00;3.60;;;27.30;52.40;;;;;;4961145;29;20225;-80
2021/06/16 15:22:49;;;;;;;3.93;3.63;;;27.20;52.60;;;;;;5613613;23;20509;-79
2021/06/16 15:28:02;;;;;;;3.80;3.50;;;27.30;52.30;;;;;;5062501;23;20483;-80
2021/06/16 15:36:42;;;;;;;4.50;4.10;;;27.20;52.30;;;;;;5146977;23;20535;-79
2021/06/16 15:42:51;;;;;;;4.50;4.10;;;27.30;52.30;;;;;;4959899;29;20414;-79
2021/06/16 15:45:27;;;;;;;4.60;4.20;;;27.20;52.30;;;;;;4990291;28;20395;-79
2021/06/16 15:48:20;;;;;;;5.80;4.03;;;27.20;52.30;;;;;;4958461;28;20418;-79
2021/06/16 15:58:27;;;;;;;4.40;4.00;;;27.20;52.30;;;;;;4959213;29;20378;-80
2021/06/16 16:01:18;;;;;;;4.30;3.90;;;27.20;52.40;;;;;;4959549;29;20439;-80
2021/06/16 16:04:14;;;;;;;4.23;3.80;;;27.20;52.40;;;;;;4967792;29;20438;-79
2021/06/16 16:10:42;;;;;;;3.90;3.60;;;27.20;52.40;;;;;;4960151;29;20370;-79
2021/06/16 16:16:51;;;;;;;4.20;3.77;;;27.30;52.40;;;;;;4955771;29;20407;-79
2021/06/16 16:19:20;;;;;;;4.73;4.20;;;27.20;52.40;;;;;;4955823;29;20439;-79
2021/06/16 16:22:03;;;;;;;4.30;3.90;;;27.20;52.40;;;;;;4971312;29;20486;-80
2021/06/16 16:24:29;;;;;;;4.20;3.90;;;27.20;52.30;;;;;;4958335;29;20410;-80
2021/06/16 16:27:07;;;;;;;4.60;4.20;;;27.20;52.30;;;;;;4958304;29;20458;-80
2021/06/16 16:29:43;;;;;;;4.40;4.00;;;27.30;52.40;;;;;;4973301;29;20422;-80
2021/06/16 16:35:42;;;;;;;5.33;3.80;;;27.30;52.30;;;;;;4957784;29;20465;-80
2021/06/16 16:38:12;;;;;;;4.13;3.83;;;27.20;52.40;;;;;;4956877;29;20455;-80
2021/06/16 16:40:42;;;;;;;5.00;4.50;;;27.30;52.40;;;;;;4955163;29;20411;-80
2021/06/16 16:43:12;;;;;;;4.10;3.70;;;27.30;52.40;;;;;;4957462;29;20417;-80
2021/06/16 16:45:57;;;;;;;3.73;3.43;;;27.30;52.40;;;;;;4956196;29;20483;-80
2021/06/16 16:48:23;;;;;;;3.57;3.27;;;27.30;52.40;;;;;;4972525;29;20422;-80
2021/06/16 16:50:50;;;;;;;5.33;3.53;;;27.20;52.30;;;;;;4940425;29;20423;-80